createdAt,value
2022-08-07T00:02:40.665Z,97423.16
2022-08-07T00:05:34.171Z,97429.16
2022-08-07T00:08:31.236Z,97427.47
2022-08-07T00:11:13.437Z,97430.50
2022-08-07T00:14:09.222Z,97428.09
2022-08-07T00:16:53.078Z,97426.56
2022-08-07T00:20:01.391Z,97428.97
2022-08-07T00:22:51.564Z,97435.28
2022-08-07T00:25:41.697Z,97431.66
2022-08-07T00:28:33.711Z,97439.25
2022-08-07T00:31:18.186Z,97440.88
2022-08-07T00:34:00.155Z,97442.53
2022-08-07T00:36:49.206Z,97447.69
2022-08-07T00:39:31.155Z,97452.78
2022-08-07T00:42:19.979Z,97456.66
2022-08-07T00:45:19.574Z,97464.63
2022-08-07T00:48:09.304Z,97464.31
2022-08-07T00:51:00.333Z,97468.09
2022-08-07T00:53:55.074Z,97468.66
2022-08-07T00:56:44.174Z,97471.53
2022-08-07T00:59:35.533Z,97478.06
2022-08-07T01:02:28.854Z,97486.56
2022-08-07T01:05:19.410Z,97480.63
2022-08-07T01:08:09.024Z,97482.88
2022-08-07T01:10:56.331Z,97483.69
2022-08-07T01:13:46.788Z,97491.53
2022-08-07T01:16:47.354Z,97496.19
2022-08-07T01:19:32.819Z,97495.25
2022-08-07T01:22:29.392Z,97500.47
2022-08-07T01:25:54.468Z,97502.13
2022-08-07T01:28:22.496Z,97508.25
2022-08-07T01:31:15.493Z,97520.94
2022-08-07T01:34:02.486Z,97512.28
2022-08-07T01:36:58.258Z,97515.19
2022-08-07T01:39:46.265Z,97519.19
2022-08-07T01:42:58.773Z,97524.38
2022-08-07T01:45:42.208Z,97522.88
2022-08-07T01:48:36.184Z,97522.81
2022-08-07T01:52:01.088Z,97531.59
2022-08-07T01:54:45.968Z,97523.81
2022-08-07T01:58:06.317Z,97525.72
2022-08-07T02:01:10.385Z,97530.38
2022-08-07T02:04:39.965Z,97537.75
2022-08-07T02:08:04.037Z,97533.03
2022-08-07T02:10:55.089Z,97546.97
2022-08-07T02:14:00.847Z,97544.97
2022-08-07T02:16:45.950Z,97543.19
2022-08-07T02:20:04.739Z,97546.88
2022-08-07T02:22:43.824Z,97546.97
2022-08-07T02:26:30.759Z,97548.81
2022-08-07T02:28:39.223Z,97542.94
2022-08-07T02:31:30.943Z,97543.44
2022-08-07T02:34:18.006Z,97553.09
2022-08-07T02:37:13.178Z,97541.09
2022-08-07T02:40:29.958Z,97545.75
2022-08-07T02:43:08.248Z,97542.28
2022-08-07T02:46:02.375Z,97554.75
2022-08-07T02:48:55.159Z,97550.47
2022-08-07T02:51:52.093Z,97555.97
2022-08-07T02:54:38.927Z,97556.72
2022-08-07T02:57:31.096Z,97555.56
2022-08-07T03:00:18.493Z,97561.53
2022-08-07T03:03:07.943Z,97566.75
2022-08-07T03:06:05.472Z,97557.25
2022-08-07T03:09:11.811Z,97571.25
2022-08-07T03:12:02.867Z,97561.19
2022-08-07T03:14:53.936Z,97555.22
2022-08-07T03:17:54.013Z,97550.88
2022-08-07T03:20:44.175Z,97552.31
2022-08-07T03:24:18.102Z,97553.22
2022-08-07T03:26:57.756Z,97549.38
2022-08-07T03:30:00.189Z,97556.25
2022-08-07T03:32:58.263Z,97563.69
2022-08-07T03:35:50.374Z,97559.41
2022-08-07T03:38:38.939Z,97558.19
2022-08-07T03:41:42.616Z,97552.66
2022-08-07T03:44:35.967Z,97551.84
2022-08-07T03:47:20.547Z,97554.22
2022-08-07T03:50:14.949Z,97553.44
2022-08-07T03:53:03.972Z,97562.19
2022-08-07T03:56:04.435Z,97549.47
2022-08-07T03:59:08.102Z,97550.59
2022-08-07T04:01:57.328Z,97546.19
2022-08-07T04:04:50.223Z,97551.66
2022-08-07T04:07:42.562Z,97549.72
2022-08-07T04:10:29.945Z,97560.47
2022-08-07T04:13:16.927Z,97547.75
2022-08-07T04:16:10.898Z,97555.28
2022-08-07T04:18:59.754Z,97554.06
2022-08-07T04:21:59.482Z,97559.13
2022-08-07T04:24:51.609Z,97556.38
2022-08-07T04:27:44.189Z,97556.31
2022-08-07T04:30:35.858Z,97556.06
2022-08-07T04:33:36.485Z,97559.53
2022-08-07T04:36:22.739Z,97557.72
2022-08-07T04:39:15.957Z,97562.81
2022-08-07T04:42:00.257Z,97560.38
2022-08-07T04:44:54.745Z,97558.59
2022-08-07T04:48:06.141Z,97561.81
2022-08-07T04:51:03.653Z,97560.59
2022-08-07T04:54:07.815Z,97553.03
2022-08-07T04:58:14.585Z,97553.81
2022-08-07T05:00:31.583Z,97564.47
2022-08-07T05:04:07.325Z,97565.63
2022-08-07T05:07:23.308Z,97555.47
2022-08-07T05:10:29.997Z,97557.75
2022-08-07T05:14:51.991Z,97550.19
2022-08-07T05:16:52.871Z,97557.16
2022-08-07T05:19:50.212Z,97551.00
2022-08-07T05:22:39.566Z,97553.69
2022-08-07T05:25:25.602Z,97549.31
2022-08-07T05:28:27.630Z,97551.09
2022-08-07T05:31:12.957Z,97545.31
2022-08-07T05:34:04.859Z,97544.81
2022-08-07T05:37:05.694Z,97537.56
2022-08-07T05:40:06.597Z,97535.97
2022-08-07T05:43:10.516Z,97538.16
2022-08-07T05:46:00.202Z,97536.31
2022-08-07T05:48:58.106Z,97536.53
2022-08-07T05:51:52.252Z,97528.09
2022-08-07T05:54:53.586Z,97532.16
2022-08-07T05:57:48.914Z,97530.94
2022-08-07T06:00:33.536Z,97527.03
2022-08-07T06:03:27.185Z,97526.38
2022-08-07T06:06:32.574Z,97532.72
2022-08-07T06:09:56.595Z,97530.41
2022-08-07T06:12:35.658Z,97537.13
2022-08-07T06:15:39.496Z,97525.56
2022-08-07T06:18:36.264Z,97516.06
2022-08-07T06:22:16.875Z,97514.06
2022-08-07T06:24:53.004Z,97506.50
2022-08-07T06:27:59.852Z,97518.00
2022-08-07T06:30:53.027Z,97514.03
2022-08-07T06:33:37.523Z,97505.34
2022-08-07T06:36:35.003Z,97500.97
2022-08-07T06:40:15.907Z,97504.09
2022-08-07T06:42:32.989Z,97520.44
2022-08-07T06:45:28.937Z,97521.22
2022-08-07T06:48:25.111Z,97525.59
2022-08-07T06:51:10.502Z,97528.41
2022-08-07T06:55:27.987Z,97533.91
2022-08-07T06:57:06.224Z,97538.75
2022-08-07T07:00:16.945Z,97532.75
2022-08-07T07:03:13.703Z,97529.28
2022-08-07T07:06:04.355Z,97529.94
2022-08-07T07:08:55.170Z,97547.31
2022-08-07T07:12:09.824Z,97542.47
2022-08-07T07:14:58.943Z,97542.34
2022-08-07T07:17:50.600Z,97531.38
2022-08-07T07:20:56.991Z,97522.47
2022-08-07T07:24:10.289Z,97523.94
2022-08-07T07:26:52.571Z,97514.16
2022-08-07T07:30:09.103Z,97512.00
2022-08-07T07:32:50.188Z,97515.34
2022-08-07T07:35:54.368Z,97510.66
2022-08-07T07:38:50.969Z,97504.78
2022-08-07T07:42:01.812Z,97502.53
2022-08-07T07:44:49.952Z,97509.31
2022-08-07T07:47:51.981Z,97505.88
2022-08-07T07:50:38.866Z,97500.75
2022-08-07T07:53:34.900Z,97503.16
2022-08-07T07:56:18.217Z,97503.88
2022-08-07T07:59:23.319Z,97508.03
2022-08-07T08:02:35.443Z,97495.84
2022-08-07T08:06:19.973Z,97487.84
2022-08-07T08:09:05.650Z,97487.56
2022-08-07T08:12:03.006Z,97486.78
2022-08-07T08:14:54.187Z,97478.56
2022-08-07T08:17:56.211Z,97481.72
2022-08-07T08:20:49.912Z,97478.97
2022-08-07T08:23:58.991Z,97472.63
2022-08-07T08:27:00.227Z,97476.63
2022-08-07T08:30:06.204Z,97469.06
2022-08-07T08:33:01.821Z,97458.38
2022-08-07T08:35:56.074Z,97454.47
2022-08-07T08:38:46.648Z,97454.81
2022-08-07T08:42:05.158Z,97459.81
2022-08-07T08:45:58.424Z,97452.00
2022-08-07T08:49:01.925Z,97444.94
2022-08-07T08:52:14.009Z,97436.59
2022-08-07T08:55:21.284Z,97427.09
2022-08-07T08:58:41.173Z,97426.69
2022-08-07T09:01:59.686Z,97431.13
2022-08-07T09:05:02.225Z,97429.91
2022-08-07T09:08:28.514Z,97422.00
2022-08-07T09:11:54.523Z,97411.28
2022-08-07T09:16:23.811Z,97411.31
2022-08-07T09:18:36.745Z,97401.72
2022-08-07T09:22:09.725Z,97394.25
2022-08-07T09:25:20.187Z,97385.59
2022-08-07T09:30:01.234Z,97377.31
2022-08-07T09:32:20.924Z,97384.88
2022-08-07T09:36:04.742Z,97388.41
2022-08-07T09:39:55.328Z,97385.66
2022-08-07T09:42:45.599Z,97376.94
2022-08-07T09:47:51.424Z,97377.75
2022-08-07T09:50:02.528Z,97377.78
2022-08-07T09:52:52.507Z,97389.28
2022-08-07T09:56:02.875Z,97392.06
2022-08-07T09:59:00.171Z,97400.03
2022-08-07T10:01:58.147Z,97393.69
2022-08-07T10:05:00.636Z,97409.53
2022-08-07T10:08:17.640Z,97403.97
2022-08-07T10:12:00.032Z,97408.75
2022-08-07T10:15:08.824Z,97394.44
2022-08-07T10:18:37.370Z,97395.66
2022-08-07T10:22:12.216Z,97382.94
2022-08-07T10:25:01.539Z,97378.16
2022-08-07T10:27:56.103Z,97367.44
2022-08-07T10:31:11.022Z,97369.06
2022-08-07T10:34:15.301Z,97376.19
2022-08-07T10:37:12.655Z,97373.41
2022-08-07T10:40:12.890Z,97382.91
2022-08-07T10:43:34.123Z,97399.22
2022-08-07T10:46:31.249Z,97402.41
2022-08-07T10:49:50.945Z,97405.59
2022-08-07T10:52:42.698Z,97402.41
2022-08-07T10:55:58.514Z,97415.88
2022-08-07T10:59:08.052Z,97438.06
2022-08-07T11:02:38.090Z,97421.69
2022-08-07T11:06:00.022Z,97410.63
2022-08-07T11:09:03.548Z,97399.47
2022-08-07T11:11:51.776Z,97388.66
2022-08-07T11:14:46.407Z,97384.59
2022-08-07T11:18:09.561Z,97387.41
2022-08-07T11:21:00.980Z,97376.91
2022-08-07T11:24:01.553Z,97378.84
2022-08-07T11:27:33.753Z,97368.00
2022-08-07T11:30:41.509Z,97381.81
2022-08-07T11:33:54.115Z,97383.66
2022-08-07T11:36:50.140Z,97396.44
2022-08-07T11:40:03.727Z,97393.75
2022-08-07T11:43:18.385Z,97388.44
2022-08-07T11:46:58.306Z,97388.13
2022-08-07T11:50:31.949Z,97381.38
2022-08-07T11:53:11.311Z,97381.03
2022-08-07T11:56:26.672Z,97374.13
2022-08-07T12:00:11.341Z,97374.91
2022-08-07T12:03:04.001Z,97374.28
2022-08-07T12:06:37.845Z,97390.88
2022-08-07T12:09:27.503Z,97386.44
2022-08-07T12:12:24.806Z,97384.13
2022-08-07T12:15:46.480Z,97377.13
2022-08-07T12:18:45.131Z,97370.75
2022-08-07T12:22:35.854Z,97370.06
2022-08-07T12:26:03.200Z,97376.47
2022-08-07T12:28:51.922Z,97379.38
2022-08-07T12:32:15.164Z,97385.94
2022-08-07T12:35:08.229Z,97381.19
2022-08-07T12:38:09.623Z,97386.81
2022-08-07T12:40:58.162Z,97378.09
2022-08-07T12:44:04.739Z,97374.16
2022-08-07T12:47:21.408Z,97376.56
2022-08-07T12:50:39.863Z,97363.41
2022-08-07T12:54:23.877Z,97366.03
2022-08-07T12:57:07.170Z,97368.50
2022-08-07T12:59:58.257Z,97362.44
2022-08-07T13:03:08.501Z,97352.13
2022-08-07T13:06:26.828Z,97350.16
2022-08-07T13:10:22.099Z,97340.00
2022-08-07T13:12:58.310Z,97347.84
2022-08-07T13:16:08.972Z,97330.44
2022-08-07T13:19:04.246Z,97334.81
2022-08-07T13:22:04.107Z,97333.16
2022-08-07T13:25:29.842Z,97332.88
2022-08-07T13:28:24.013Z,97323.03
2022-08-07T13:31:32.132Z,97340.03
2022-08-07T13:34:44.714Z,97338.41
2022-08-07T13:38:06.618Z,97349.97
2022-08-07T13:41:05.553Z,97346.47
2022-08-07T13:44:01.546Z,97350.41
2022-08-07T13:47:02.273Z,97348.13
2022-08-07T13:50:33.400Z,97357.94
2022-08-07T13:52:59.501Z,97358.34
2022-08-07T13:55:54.917Z,97354.84
2022-08-07T13:59:06.249Z,97357.16
2022-08-07T14:02:33.413Z,97360.84
2022-08-07T14:05:28.947Z,97366.34
2022-08-07T14:08:30.292Z,97373.00
2022-08-07T14:11:17.541Z,97382.78
2022-08-07T14:14:15.749Z,97389.22
2022-08-07T14:17:32.218Z,97396.81
2022-08-07T14:20:41.127Z,97405.00
2022-08-07T14:24:00.282Z,97406.22
2022-08-07T14:26:58.496Z,97407.03
2022-08-07T14:30:09.838Z,97406.50
2022-08-07T14:33:05.340Z,97407.75
2022-08-07T14:36:08.811Z,97415.28
2022-08-07T14:39:06.489Z,97410.97
2022-08-07T14:42:20.663Z,97416.03
2022-08-07T14:45:21.197Z,97417.56
2022-08-07T14:48:19.719Z,97422.69
2022-08-07T14:51:06.545Z,97426.56
2022-08-07T14:54:30.907Z,97429.22
2022-08-07T14:57:20.534Z,97431.66
2022-08-07T15:00:06.949Z,97434.84
2022-08-07T15:03:18.965Z,97443.22
2022-08-07T15:06:09.517Z,97441.47
2022-08-07T15:08:56.142Z,97443.75
2022-08-07T15:15:34.308Z,97456.84
2022-08-07T15:18:41.644Z,97460.31
2022-08-07T15:28:35.217Z,97470.16
2022-08-07T15:32:02.104Z,97460.19
2022-08-07T15:34:26.906Z,97465.97
2022-08-07T15:37:10.211Z,97457.19
2022-08-07T15:43:52.940Z,97466.97
2022-08-07T15:46:38.516Z,97483.59
2022-08-07T15:50:05.090Z,97487.94
2022-08-07T15:52:42.270Z,97482.88
2022-08-07T15:55:58.573Z,97496.09
2022-08-07T15:58:56.269Z,97506.47
2022-08-07T16:02:02.066Z,97508.69
2022-08-07T16:04:52.481Z,97512.75
2022-08-07T16:08:30.889Z,97519.16
2022-08-07T16:10:56.255Z,97522.00
2022-08-07T16:14:06.807Z,97522.94
2022-08-07T16:16:58.263Z,97528.63
2022-08-07T16:20:33.623Z,97537.22
2022-08-07T16:23:58.284Z,97545.84
2022-08-07T16:27:21.818Z,97543.72
2022-08-07T16:30:30.885Z,97544.47
2022-08-07T16:34:02.217Z,97553.16
2022-08-07T16:38:05.714Z,97543.78
2022-08-07T16:41:02.336Z,97555.66
2022-08-07T16:44:47.308Z,97571.44
2022-08-07T16:47:49.680Z,97567.91
2022-08-07T16:51:20.953Z,97569.06
2022-08-07T16:54:11.444Z,97570.66
2022-08-07T16:58:00.909Z,97566.03
2022-08-07T17:00:31.154Z,97565.97
2022-08-07T17:03:47.321Z,97563.19
2022-08-07T17:07:03.219Z,97564.88
2022-08-07T17:10:33.174Z,97569.59
2022-08-07T17:13:41.864Z,97571.94
2022-08-07T17:16:56.937Z,97565.28
2022-08-07T17:20:14.481Z,97562.94
2022-08-07T17:23:13.049Z,97570.34
2022-08-07T17:26:35.866Z,97569.59
2022-08-07T17:30:14.459Z,97572.47
2022-08-07T17:34:09.983Z,97571.66
2022-08-07T17:36:31.942Z,97569.59
2022-08-07T17:39:58.907Z,97570.06
2022-08-07T17:42:58.312Z,97581.84
2022-08-07T17:45:55.497Z,97582.59
2022-08-07T17:49:09.233Z,97583.81
2022-08-07T17:52:00.943Z,97574.75
2022-08-07T17:54:53.521Z,97572.22
2022-08-07T17:57:58.639Z,97578.66
2022-08-07T18:00:58.260Z,97579.75
2022-08-07T18:04:07.731Z,97582.47
2022-08-07T18:06:57.907Z,97587.69
2022-08-07T18:10:32.424Z,97581.91
2022-08-07T18:13:40.957Z,97570.00
2022-08-07T18:16:59.004Z,97577.03
2022-08-07T18:21:12.716Z,97581.69
2022-08-07T18:23:43.364Z,97577.94
2022-08-07T18:26:54.247Z,97576.41
2022-08-07T18:30:05.801Z,97570.72
2022-08-07T18:33:15.435Z,97570.81
2022-08-07T18:36:33.348Z,97578.31
2022-08-07T18:40:08.452Z,97577.53
2022-08-07T18:43:01.233Z,97582.78
2022-08-07T18:46:25.081Z,97574.06
2022-08-07T18:50:30.355Z,97574.06
2022-08-07T18:53:12.751Z,97566.50
2022-08-07T18:56:21.341Z,97562.94
2022-08-07T18:59:47.135Z,97574.00
2022-08-07T19:02:52.493Z,97555.06
2022-08-07T19:06:01.852Z,97559.34
2022-08-07T19:09:09.336Z,97561.00
2022-08-07T19:12:20.715Z,97565.28
2022-08-07T19:16:05.451Z,97562.59
2022-08-07T19:18:52.438Z,97553.38
2022-08-07T19:22:04.209Z,97555.38
2022-08-07T19:25:06.727Z,97552.22
2022-08-07T19:28:29.325Z,97546.91
2022-08-07T19:31:59.820Z,97552.44
2022-08-07T19:34:39.489Z,97538.94
2022-08-07T19:37:24.274Z,97551.22
2022-08-07T19:40:34.648Z,97549.41
2022-08-07T19:43:49.136Z,97545.09
2022-08-07T19:46:55.368Z,97538.34
2022-08-07T19:49:58.402Z,97536.78
2022-08-07T19:52:46.924Z,97543.09
2022-08-07T19:55:57.574Z,97536.78
2022-08-07T19:58:46.498Z,97549.47
2022-08-07T20:01:52.610Z,97533.63
2022-08-07T20:04:51.875Z,97536.88
2022-08-07T20:07:47.498Z,97542.53
2022-08-07T20:10:54.966Z,97542.47
2022-08-07T20:13:47.439Z,97559.03
2022-08-07T20:16:37.578Z,97552.72
2022-08-07T20:19:47.993Z,97551.09
2022-08-07T20:22:42.333Z,97545.56
2022-08-07T20:25:32.505Z,97549.88
2022-08-07T20:28:38.230Z,97538.28
2022-08-07T20:31:29.500Z,97547.91
2022-08-07T20:34:14.841Z,97545.97
2022-08-07T20:37:09.479Z,97543.97
2022-08-07T20:40:03.072Z,97542.72
2022-08-07T20:42:58.802Z,97544.03
2022-08-07T20:46:26.921Z,97552.75
2022-08-07T20:49:00.742Z,97545.97
2022-08-07T20:51:53.835Z,97538.75
2022-08-07T20:54:53.082Z,97541.56
2022-08-07T20:58:00.016Z,97558.97
2022-08-07T21:00:55.296Z,97554.69
2022-08-07T21:03:38.699Z,97558.66
2022-08-07T21:06:31.603Z,97566.81
2022-08-07T21:09:27.875Z,97556.94
2022-08-07T21:12:28.690Z,97560.59
2022-08-07T21:15:47.834Z,97568.84
2022-08-07T21:18:41.302Z,97568.09
2022-08-07T21:21:33.251Z,97561.09
2022-08-07T21:24:54.505Z,97565.97
2022-08-07T21:28:05.485Z,97560.22
2022-08-07T21:31:10.467Z,97556.59
2022-08-07T21:34:32.294Z,97555.84
2022-08-07T21:37:57.191Z,97556.97
2022-08-07T21:40:40.496Z,97566.03
2022-08-07T21:43:55.312Z,97563.84
2022-08-07T21:47:03.474Z,97559.88
2022-08-07T21:50:02.713Z,97563.31
2022-08-07T21:53:27.500Z,97561.44
2022-08-07T21:56:36.178Z,97554.00
2022-08-07T22:00:05.443Z,97559.69
2022-08-07T22:02:47.664Z,97559.91
2022-08-07T22:05:46.099Z,97555.84
2022-08-07T22:08:39.425Z,97561.28
2022-08-07T22:11:30.767Z,97560.69
2022-08-07T22:14:59.118Z,97555.94
2022-08-07T22:17:56.448Z,97564.34
2022-08-07T22:21:01.750Z,97553.66
2022-08-07T22:24:05.461Z,97555.66
2022-08-07T22:27:06.073Z,97560.59
2022-08-07T22:30:22.450Z,97567.75
2022-08-07T22:33:18.837Z,97568.91
2022-08-07T22:36:33.468Z,97565.84
2022-08-07T22:39:52.640Z,97568.59
2022-08-07T22:42:45.269Z,97570.31
2022-08-07T22:46:21.813Z,97569.47
2022-08-07T22:49:09.662Z,97579.69
2022-08-07T22:52:36.971Z,97576.28
2022-08-07T22:55:44.570Z,97566.59
2022-08-07T22:59:02.244Z,97574.28
2022-08-07T23:01:58.925Z,97576.59
2022-08-07T23:06:09.777Z,97567.84
2022-08-07T23:10:03.560Z,97568.53
2022-08-07T23:12:36.287Z,97565.19
2022-08-07T23:16:07.386Z,97569.94
2022-08-07T23:19:48.402Z,97569.00
2022-08-07T23:22:40.463Z,97572.94
2022-08-07T23:26:01.817Z,97575.66
2022-08-07T23:29:16.841Z,97575.66
2022-08-07T23:34:20.773Z,97573.97
2022-08-07T23:36:22.933Z,97579.66
2022-08-07T23:39:40.830Z,97578.72
2022-08-07T23:43:16.446Z,97578.00
2022-08-07T23:46:10.419Z,97586.31
2022-08-07T23:49:01.439Z,97591.00
2022-08-07T23:53:01.583Z,97587.69
2022-08-07T23:55:05.475Z,97592.56
2022-08-07T23:58:00.559Z,97599.19
